Time;durP1;ratioP1;P1;durP2;ratioP2;P2;SDS_P1;SDS_P2;PMS_P1;PMS_P2;Temp;Humidity;BMP_temperature;BMP_pressure;BME280_temperature;BME280_humidity;BME280_pressure;Samples;Min_cycle;Max_cycle;Signal;HPM_P1;HPM_P2
2021/11/17 02:26:16;;;;;;;66.20;33.18;;;;;;;6.52;79.96;101689.99;1750835;81;21583;-85
2021/11/17 02:28:48;;;;;;;68.25;33.55;;;;;;;6.57;79.98;101685.03;1753481;81;21686;-85
2021/11/17 02:31:45;;;;;;;65.60;35.15;;;;;;;6.58;80.01;101687.70;1747656;81;21329;-85
2021/11/17 02:34:25;;;;;;;64.80;32.88;;;;;;;6.58;79.87;101678.97;1687345;84;21743;-85
2021/11/17 02:37:07;;;;;;;67.78;34.92;;;;;;;6.57;79.92;101679.39;1727612;82;21103;-84
2021/11/17 02:39:52;;;;;;;66.25;34.78;;;;;;;6.59;80.00;101679.48;1710626;82;21071;-85
2021/11/17 02:42:27;;;;;;;59.55;33.20;;;;;;;6.60;80.01;101671.69;1738626;82;29430;-85
2021/11/17 02:45:32;;;;;;;71.10;35.28;;;;;;;6.63;80.06;101663.55;1736927;82;21113;-85
2021/11/17 02:48:25;;;;;;;;;;;;;;;6.63;80.03;101659.63;1741412;82;21929;-84
2021/11/17 02:51:15;;;;;;;68.60;33.83;;;;;;;6.65;80.08;101658.88;1738722;82;20582;-85
2021/11/17 02:53:50;;;;;;;74.90;35.33;;;;;;;6.64;80.05;101653.56;1737762;82;21576;-85
2021/11/17 02:56:38;;;;;;;71.00;35.08;;;;;;;6.67;80.22;101655.05;1723007;82;21710;-85
2021/11/17 02:59:13;;;;;;;73.83;37.88;;;;;;;6.70;80.25;101652.20;1737839;82;21119;-85
2021/11/17 03:02:11;;;;;;;73.90;37.13;;;;;;;6.71;80.12;101653.09;1738019;82;21711;-78
2021/11/17 03:05:01;;;;;;;77.15;38.20;;;;;;;6.69;80.22;101645.15;1738039;82;21556;-85
2021/11/17 03:07:42;;;;;;;82.42;40.00;;;;;;;6.71;80.20;101637.39;1738602;82;21330;-85
2021/11/17 03:10:28;;;;;;;82.08;39.60;;;;;;;6.71;80.17;101638.70;1738298;81;21579;-85
2021/11/17 03:13:24;;;;;;;82.33;39.48;;;;;;;6.71;80.21;101634.77;1711970;82;21027;-85
2021/11/17 03:16:29;;;;;;;88.05;41.18;;;;;;;6.69;80.25;101631.17;1738394;82;21925;-85
2021/11/17 03:19:22;;;;;;;75.42;38.15;;;;;;;6.68;80.32;101630.67;1737826;82;21051;-84
2021/11/17 03:22:00;;;;;;;81.50;38.42;;;;;;;6.70;80.35;101632.58;1738431;82;21083;-84
2021/11/17 03:25:07;;;;;;;80.85;39.50;;;;;;;6.70;80.41;101627.72;1736349;82;21087;-84
2021/11/17 03:27:51;;;;;;;88.67;41.25;;;;;;;6.71;80.43;101621.69;1737586;82;21079;-84
2021/11/17 03:30:49;;;;;;;83.85;40.40;;;;;;;6.68;80.40;101625.44;1738537;82;21811;-84
2021/11/17 03:33:34;;;;;;;92.65;42.62;;;;;;;6.64;80.43;101626.98;1760848;81;21030;-84
2021/11/17 03:36:35;;;;;;;83.30;41.75;;;;;;;6.66;80.52;101628.38;1761936;81;21085;-85
2021/11/17 03:39:39;;;;;;;99.30;44.55;;;;;;;6.65;80.51;101627.49;1761714;81;21019;-83
2021/11/17 03:42:23;;;;;;;89.42;43.48;;;;;;;6.63;80.58;101621.69;1761798;81;21053;-84
2021/11/17 03:45:32;;;;;;;88.55;42.88;;;;;;;6.61;80.64;101622.91;1761790;81;21772;-84
2021/11/17 03:48:26;;;;;;;95.03;44.77;;;;;;;6.61;80.73;101619.87;1761720;81;21019;-84
2021/11/17 03:51:10;;;;;;;93.60;44.70;;;;;;;6.61;80.78;101616.37;1760912;81;21085;-84
2021/11/17 03:54:12;;;;;;;99.60;48.17;;;;;;;6.59;80.76;101611.47;1761508;81;21259;-84
2021/11/17 03:56:45;;;;;;;100.55;47.10;;;;;;;6.56;80.83;101604.75;1760475;81;21023;-84
2021/11/17 03:59:42;;;;;;;91.78;45.63;;;;;;;6.56;80.88;101606.05;1760028;81;21947;-84
2021/11/17 04:02:33;;;;;;;95.77;46.13;;;;;;;6.56;80.91;101607.36;1760782;81;21050;-84
2021/11/17 04:05:11;;;;;;;103.70;47.35;;;;;;;6.57;80.94;101609.17;1734292;81;21030;-84
2021/11/17 04:08:11;;;;;;;92.00;47.15;;;;;;;6.53;80.95;101604.56;1761763;81;21166;-84
2021/11/17 04:11:19;;;;;;;93.82;43.98;;;;;;;6.53;81.05;101596.72;1761705;81;21065;-84
2021/11/17 04:14:17;;;;;;;99.60;46.70;;;;;;;6.53;81.08;101591.11;1761133;81;21872;-83
2021/11/17 04:17:26;;;;;;;94.32;44.83;;;;;;;6.56;81.19;101589.05;1759895;81;21050;-84
2021/11/17 04:20:15;;;;;;;96.57;45.55;;;;;;;6.60;81.23;101588.40;1732482;81;21096;-84
2021/11/17 04:22:47;;;;;;;91.47;44.65;;;;;;;6.59;81.23;101584.00;1761811;81;21612;-85
2021/11/17 04:25:43;;;;;;;99.62;44.90;;;;;;;6.61;81.23;101583.67;1761748;81;21116;-85
2021/11/17 04:28:36;;;;;;;92.92;43.63;;;;;;;6.62;81.22;101590.69;1761807;81;21663;-85
2021/11/17 04:31:29;;;;;;;95.07;44.60;;;;;;;6.63;81.18;101582.03;1761119;81;21046;-83
2021/11/17 04:34:08;;;;;;;96.95;44.77;;;;;;;6.62;81.24;101578.91;1753285;81;21390;-85
2021/11/17 04:37:13;;;;;;;83.92;44.48;;;;;;;6.64;81.28;101575.97;1753036;81;21074;-85
2021/11/17 04:40:28;;;;;;;99.65;46.98;;;;;;;6.65;81.22;101574.27;1752010;81;21118;-84
2021/11/17 04:43:17;;;;;;;92.67;44.95;;;;;;;6.66;81.29;101576.05;1751907;81;21864;-85
2021/11/17 04:46:19;;;;;;;92.22;44.63;;;;;;;6.67;81.30;101580.07;1753025;81;21070;-85
2021/11/17 04:49:20;;;;;;;97.05;46.42;;;;;;;6.69;81.28;101575.81;1753406;81;21054;-84
2021/11/17 04:52:09;;;;;;;95.05;45.38;;;;;;;6.70;81.31;101579.32;1753361;81;21106;-85
2021/11/17 04:54:50;;;;;;;84.35;43.70;;;;;;;6.72;81.30;101581.61;1753524;81;21109;-85
2021/11/17 04:57:38;;;;;;;84.62;43.92;;;;;;;6.72;81.30;101576.37;1753091;81;21767;-85
2021/11/17 05:00:42;;;;;;;94.03;45.88;;;;;;;6.73;81.29;101575.16;1753170;81;21627;-82
2021/11/17 05:03:40;;;;;;;98.22;45.85;;;;;;;6.73;81.33;101568.62;1730998;81;21072;-82
2021/11/17 05:06:27;;;;;;;95.28;45.98;;;;;;;6.76;81.35;101569.21;1721756;83;21071;-82
2021/11/17 05:09:11;;;;;;;103.90;49.73;;;;;;;6.76;81.34;101559.64;1720497;83;21452;-83
2021/11/17 05:11:44;;;;;;;95.10;45.92;;;;;;;6.76;81.26;101562.67;1721743;83;22723;-81
2021/11/17 05:14:31;;;;;;;95.00;47.13;;;;;;;6.72;81.25;101556.38;1722657;81;21126;-82
2021/11/17 05:17:09;;;;;;;94.42;48.05;;;;;;;6.74;81.36;101556.04;1722747;82;21054;-81
2021/11/17 05:20:03;;;;;;;95.92;45.67;;;;;;;6.74;81.37;101550.81;1703645;83;48968;-81
2021/11/17 05:23:05;;;;;;;98.10;46.30;;;;;;;6.76;81.36;101549.59;1722978;83;22125;-83
2021/11/17 05:26:05;;;;;;;90.25;43.85;;;;;;;6.76;81.39;101550.89;1723165;82;21834;-82
2021/11/17 05:28:41;;;;;;;95.80;46.37;;;;;;;6.77;81.40;101547.03;1722438;81;21169;-83
2021/11/17 05:31:29;;;;;;;93.97;46.83;;;;;;;6.75;81.37;101539.51;1743939;81;21231;-81
2021/11/17 05:34:18;;;;;;;88.35;46.10;;;;;;;6.79;81.52;101540.19;1751490;81;21069;-80
2021/11/17 05:37:12;;;;;;;86.85;45.38;;;;;;;6.79;81.42;101548.04;1751713;81;21073;-83
2021/11/17 05:40:02;;;;;;;90.80;47.60;;;;;;;6.81;81.40;101550.70;1752848;81;21747;-83
2021/11/17 05:42:48;;;;;;;90.05;44.50;;;;;;;6.79;81.36;101548.04;1751021;81;21066;-80
2021/11/17 05:45:32;;;;;;;98.03;47.58;;;;;;;6.79;81.42;101537.95;1752207;81;21078;-79
2021/11/17 05:48:24;;;;;;;97.17;46.23;;;;;;;6.79;81.39;101538.87;1751429;81;21102;-79
2021/11/17 05:51:17;;;;;;;91.72;45.38;;;;;;;6.80;81.42;101531.91;1752604;81;21098;-75
2021/11/17 05:54:04;;;;;;;98.62;45.63;;;;;;;6.79;81.39;101537.56;1752411;81;21837;-79
2021/11/17 05:56:45;;;;;;;95.57;46.70;;;;;;;6.79;81.35;101535.34;1751386;81;21608;-78
2021/11/17 05:59:41;;;;;;;96.20;46.68;;;;;;;6.77;81.32;101533.05;1751423;81;21141;-77
2021/11/17 06:02:34;;;;;;;90.70;44.63;;;;;;;6.75;81.36;101533.38;1751634;81;21059;-78
2021/11/17 06:05:01;;;;;;;97.10;45.92;;;;;;;6.76;81.42;101535.20;1720847;81;21012;-77
2021/11/17 06:07:29;;;;;;;94.28;46.68;;;;;;;6.78;81.42;101533.55;1751529;81;21552;-79
2021/11/17 06:10:03;;;;;;;102.27;46.55;;;;;;;6.78;81.36;101531.83;1743429;81;21142;-81
2021/11/17 06:12:30;;;;;;;97.57;47.27;;;;;;;6.79;81.46;101533.64;1722739;82;21063;-79
2021/11/17 06:14:59;;;;;;;97.78;48.28;;;;;;;6.80;81.34;101533.23;1703888;83;21573;-79
2021/11/17 06:17:26;;;;;;;104.60;48.28;;;;;;;6.78;81.29;101533.14;1722782;82;21074;-81
2021/11/17 06:19:54;;;;;;;96.82;46.65;;;;;;;6.78;81.32;101527.91;1723026;82;21881;-81
2021/11/17 06:22:26;;;;;;;103.55;49.03;;;;;;;6.78;81.34;101529.63;1722971;82;21628;-81
2021/11/17 06:24:52;;;;;;;97.45;46.92;;;;;;;6.80;81.32;101535.84;1722069;81;21098;-82
2021/11/17 06:27:21;;;;;;;96.35;46.85;;;;;;;6.79;81.30;101534.03;1722677;82;21141;-81
2021/11/17 06:29:48;;;;;;;109.15;49.95;;;;;;;6.78;81.30;101538.37;1723086;82;21118;-81
2021/11/17 06:32:15;;;;;;;106.32;49.25;;;;;;;6.81;81.32;101533.70;1721493;82;21828;-81
2021/11/17 06:34:48;;;;;;;102.38;46.75;;;;;;;6.80;81.30;101538.04;1715259;83;21102;-81
2021/11/17 06:37:17;;;;;;;105.03;49.50;;;;;;;6.84;81.43;101540.41;1715650;82;21141;-81
2021/11/17 06:39:46;;;;;;;105.58;48.25;;;;;;;6.84;81.31;101537.80;1715429;82;21074;-81
2021/11/17 06:42:20;;;;;;;103.07;47.50;;;;;;;6.85;81.29;101534.77;1715339;82;20992;-82
2021/11/17 06:44:47;;;;;;;101.50;48.50;;;;;;;6.85;81.34;101536.99;1717771;82;22607;-81
2021/11/17 06:47:16;;;;;;;105.30;49.95;;;;;;;6.86;81.29;101536.58;1715388;82;21600;-81
2021/11/17 06:49:45;;;;;;;120.80;53.38;;;;;;;6.86;81.31;101539.19;1694337;83;21063;-81
2021/11/17 06:52:11;;;;;;;110.57;51.00;;;;;;;6.87;81.30;101534.42;1715251;82;21580;-81
2021/11/17 06:54:38;;;;;;;99.42;49.50;;;;;;;6.88;81.36;101535.82;1715251;82;21075;-81
2021/11/17 06:57:05;;;;;;;113.40;52.13;;;;;;;6.89;81.33;101528.86;1715314;82;22666;-81
2021/11/17 06:59:31;;;;;;;101.90;48.45;;;;;;;6.92;81.38;101535.58;1714992;82;20996;-81
2021/11/17 07:02:04;;;;;;;108.50;49.33;;;;;;;6.93;81.46;101526.50;1715318;82;21529;-81
2021/11/17 07:04:26;;;;;;;105.83;49.50;;;;;;;6.96;81.35;101539.77;1714117;83;21178;-81
2021/11/17 07:06:53;;;;;;;118.47;51.95;;;;;;;6.96;81.25;101528.37;1714670;83;21112;-81
2021/11/17 07:09:20;;;;;;;107.45;52.90;;;;;;;6.96;81.20;101533.61;1715291;82;21763;-81
2021/11/17 07:11:46;;;;;;;111.12;53.55;;;;;;;6.95;81.28;101529.20;1715209;82;21082;-81
2021/11/17 07:14:16;;;;;;;111.60;50.78;;;;;;;6.94;81.20;101522.16;1715355;82;21243;-81
2021/11/17 07:16:42;;;;;;;112.75;50.52;;;;;;;6.97;81.30;101530.19;1715319;82;21059;-82
2021/11/17 07:19:13;;;;;;;112.92;51.00;;;;;;;6.99;81.25;101535.09;1715414;82;21086;-82
2021/11/17 07:21:39;;;;;;;107.95;50.73;;;;;;;6.99;81.24;101527.23;1715203;82;22609;-81
2021/11/17 07:24:06;;;;;;;108.78;50.90;;;;;;;7.02;81.24;101524.78;1715369;82;21107;-82
2021/11/17 07:26:36;;;;;;;104.83;50.83;;;;;;;7.02;81.15;101522.17;1714991;82;21097;-81
2021/11/17 07:29:01;;;;;;;103.60;50.50;;;;;;;7.04;81.18;101518.30;1714862;83;21126;-81
2021/11/17 07:31:28;;;;;;;113.37;51.48;;;;;;;7.05;81.15;101514.45;1715278;83;21083;-81
2021/11/17 07:33:55;;;;;;;118.17;51.65;;;;;;;7.06;81.07;101516.65;1718495;82;21769;-81
2021/11/17 07:36:21;;;;;;;119.30;53.42;;;;;;;7.08;81.09;101511.11;1714916;82;21604;-81
2021/11/17 07:38:49;;;;;;;118.33;55.80;;;;;;;7.12;81.13;101510.45;1715402;82;21071;-81
2021/11/17 07:41:15;;;;;;;117.67;52.03;;;;;;;7.13;81.07;101509.22;1715207;83;21100;-82
2021/11/17 07:43:42;;;;;;;111.45;51.42;;;;;;;7.15;81.02;101500.11;1715171;82;21616;-82
2021/11/17 07:46:09;;;;;;;116.70;52.80;;;;;;;7.16;80.91;101505.84;1715200;82;21761;-82
2021/11/17 07:48:35;;;;;;;102.15;50.20;;;;;;;7.15;80.91;101499.72;1715106;83;21142;-82
2021/11/17 07:51:02;;;;;;;113.88;51.08;;;;;;;7.20;81.03;101500.83;1715247;82;21051;-82
2021/11/17 07:53:29;;;;;;;118.28;53.98;;;;;;;7.25;81.04;101497.16;1715290;83;21404;-82
2021/11/17 07:55:57;;;;;;;124.18;55.43;;;;;;;7.26;80.88;101501.55;1715425;82;21095;-82
2021/11/17 07:58:25;;;;;;;124.45;54.80;;;;;;;7.26;80.88;101500.66;1715602;83;21758;-82
2021/11/17 08:00:54;;;;;;;136.52;59.13;;;;;;;7.26;80.86;101497.63;1715605;82;21094;-82
2021/11/17 08:03:22;;;;;;;130.18;59.03;;;;;;;7.29;80.93;101500.41;1715461;83;21529;-82
2021/11/17 08:05:50;;;;;;;136.85;58.20;;;;;;;7.30;80.85;101500.91;1715139;83;21186;-82
2021/11/17 08:08:21;;;;;;;148.07;62.25;;;;;;;7.31;80.85;101498.76;1715287;82;21087;-82
2021/11/17 08:10:47;;;;;;;141.43;61.30;;;;;;;7.35;80.88;101498.50;1714270;83;21718;-82
2021/11/17 08:13:14;;;;;;;141.32;60.55;;;;;;;7.37;80.86;101500.36;1715016;82;21056;-82
2021/11/17 08:15:41;;;;;;;152.72;65.42;;;;;;;7.37;80.79;101495.55;1715047;83;21107;-82
2021/11/17 08:18:07;;;;;;;150.87;61.42;;;;;;;7.38;80.85;101496.94;1715046;83;21681;-82
2021/11/17 08:20:34;;;;;;;145.25;62.70;;;;;;;7.42;80.74;101501.03;1715200;82;21571;-82
2021/11/17 08:23:01;;;;;;;166.68;71.72;;;;;;;7.42;80.72;101501.92;1715285;83;22600;-82
2021/11/17 08:25:31;;;;;;;181.87;77.37;;;;;;;7.40;80.71;101504.45;1715126;82;21146;-82
2021/11/17 08:27:58;;;;;;;181.35;75.78;;;;;;;7.40;80.65;101512.31;1715211;82;21118;-82
2021/11/17 08:30:28;;;;;;;189.15;81.60;;;;;;;7.38;80.60;101517.89;1715065;82;21059;-82
2021/11/17 08:32:54;;;;;;;196.32;79.60;;;;;;;7.36;80.67;101510.80;1715003;82;21536;-82
2021/11/17 08:35:25;;;;;;;196.18;80.17;;;;;;;7.36;80.71;101512.99;1694216;83;21083;-80
2021/11/17 08:37:53;;;;;;;176.57;75.28;;;;;;;7.38;80.81;101519.62;1715247;82;21647;-82
2021/11/17 08:40:24;;;;;;;187.37;74.97;;;;;;;7.39;80.70;101516.16;1715345;82;21019;-80
2021/11/17 08:42:51;;;;;;;183.18;74.67;;;;;;;7.38;80.67;101513.97;1715152;83;21075;-80
2021/11/17 08:45:18;;;;;;;184.30;75.60;;;;;;;7.36;80.57;101517.34;1715275;82;21086;-81
2021/11/17 08:47:47;;;;;;;167.90;73.40;;;;;;;7.34;80.60;101525.53;1715205;82;22510;-81
2021/11/17 08:50:17;;;;;;;182.55;77.37;;;;;;;7.33;80.54;101535.51;1715064;82;21067;-81
2021/11/17 08:52:44;;;;;;;182.10;75.55;;;;;;;7.27;80.53;101528.66;1715187;83;21090;-81
2021/11/17 08:55:11;;;;;;;181.15;77.00;;;;;;;7.23;80.56;101535.88;1715143;82;21317;-80
2021/11/17 08:57:39;;;;;;;169.75;74.00;;;;;;;7.20;80.59;101537.48;1715247;82;21377;-80
2021/11/17 09:00:08;;;;;;;174.57;74.80;;;;;;;7.19;80.69;101531.78;1715318;83;22455;-80
2021/11/17 09:02:40;;;;;;;163.25;72.97;;;;;;;7.19;80.62;101534.39;1715450;82;21647;-80
2021/11/17 09:05:05;;;;;;;160.82;73.90;;;;;;;7.18;80.64;101533.00;1714819;83;21018;-81
2021/11/17 09:07:32;;;;;;;168.60;72.95;;;;;;;7.19;80.68;101534.39;1715253;82;21147;-81
2021/11/17 09:09:58;;;;;;;160.40;71.40;;;;;;;7.18;80.67;101535.20;1715413;83;21075;-81
2021/11/17 09:12:25;;;;;;;166.75;73.92;;;;;;;7.22;80.71;101530.13;1715326;83;21764;-80
2021/11/17 09:14:52;;;;;;;153.82;69.05;;;;;;;7.23;80.68;101534.56;1715174;82;21067;-81
2021/11/17 09:17:18;;;;;;;153.05;70.55;;;;;;;7.23;80.59;101534.14;1715234;83;21111;-81
2021/11/17 09:19:45;;;;;;;177.22;75.67;;;;;;;7.25;80.70;101532.50;1715135;82;21079;-80
2021/11/17 09:22:12;;;;;;;154.47;73.28;;;;;;;7.31;80.72;101531.91;1715327;82;21769;-81
2021/11/17 09:24:38;;;;;;;153.07;72.72;;;;;;;7.32;80.60;101524.14;1715352;82;23090;-81
2021/11/17 09:27:06;;;;;;;165.57;72.45;;;;;;;7.35;80.63;101518.15;1715201;82;21525;-81
2021/11/17 09:29:33;;;;;;;162.43;73.42;;;;;;;7.35;80.52;101508.98;1715086;82;21126;-81
2021/11/17 09:32:01;;;;;;;163.30;74.77;;;;;;;7.37;80.48;101512.15;1715429;82;21115;-81
2021/11/17 09:34:27;;;;;;;164.13;74.42;;;;;;;7.38;80.43;101513.97;1724029;82;21058;-81
2021/11/17 09:36:54;;;;;;;153.02;72.05;;;;;;;7.37;80.41;101504.30;1728149;82;22610;-81
2021/11/17 09:39:21;;;;;;;160.20;74.67;;;;;;;7.41;80.43;101500.11;1728085;82;21576;-81
2021/11/17 09:41:54;;;;;;;162.18;73.72;;;;;;;7.42;80.41;101496.69;1728192;82;21117;-81
2021/11/17 09:44:29;;;;;;;172.20;76.87;;;;;;;7.45;80.33;101498.16;1712196;83;21541;-81
2021/11/17 09:47:00;;;;;;;164.85;76.28;;;;;;;7.44;80.32;101498.08;1728429;82;21123;-81
2021/11/17 09:49:44;;;;;;;154.57;74.53;;;;;;;7.45;80.30;101494.23;1728613;83;22035;-81
2021/11/17 09:52:19;;;;;;;154.40;70.60;;;;;;;7.47;80.27;101486.03;1727908;82;21085;-81
2021/11/17 09:55:00;;;;;;;141.05;68.25;;;;;;;7.47;80.30;101482.48;1728606;82;21054;-76
2021/11/17 09:57:34;;;;;;;141.65;67.27;;;;;;;7.50;80.25;101482.66;1730361;82;21097;-82
2021/11/17 10:00:27;;;;;;;142.15;68.65;;;;;;;7.52;80.12;101474.03;1728587;82;21371;-82
2021/11/17 10:03:14;;;;;;;140.03;67.05;;;;;;;7.53;80.08;101467.09;1728402;82;21767;-81
2021/11/17 10:14:37;;;;;;;115.00;59.58;;;;;;;7.70;79.90;101447.84;1682342;85;21129;-82
2021/11/17 10:17:03;;;;;;;121.80;61.77;;;;;;;7.69;79.69;101445.14;1717031;82;22424;-83
2021/11/17 10:19:34;;;;;;;120.70;62.35;;;;;;;7.69;79.70;101442.09;1736250;82;21066;-83
2021/11/17 10:22:10;;;;;;;122.25;62.55;;;;;;;7.71;79.67;101440.44;1728399;82;21313;-82
2021/11/17 10:24:50;;;;;;;121.07;62.48;;;;;;;7.70;79.59;101441.29;1727935;83;21106;-83
2021/11/17 10:27:26;;;;;;;122.20;62.85;;;;;;;7.69;79.47;101442.09;1727666;82;21141;-82
2021/11/17 10:30:07;;;;;;;127.85;63.45;;;;;;;7.68;79.40;101441.62;1728039;82;21854;-82
2021/11/17 10:32:41;;;;;;;121.05;61.70;;;;;;;7.69;79.42;101436.85;1728046;83;21497;-82
2021/11/17 10:35:34;;;;;;;116.28;60.35;;;;;;;7.69;79.36;101435.55;1727764;82;21580;-82
2021/11/17 10:38:10;;;;;;;124.90;62.40;;;;;;;7.67;79.23;101429.76;1728395;82;21078;-81
2021/11/17 10:40:53;;;;;;;116.77;61.05;;;;;;;7.67;79.21;101428.45;1727596;82;21639;-81
2021/11/17 10:43:27;;;;;;;111.32;58.50;;;;;;;7.69;79.29;101421.55;1728307;82;23501;-82
2021/11/17 10:46:07;;;;;;;120.72;61.28;;;;;;;7.71;79.08;101419.90;1728163;82;21079;-82
2021/11/17 10:48:41;;;;;;;120.33;62.95;;;;;;;7.70;79.09;101416.81;1728315;82;21090;-82
2021/11/17 10:51:16;;;;;;;117.77;61.90;;;;;;;7.72;79.07;101419.98;1728365;81;22467;-82
2021/11/17 10:53:48;;;;;;;118.30;60.78;;;;;;;7.74;79.02;101419.63;1728146;83;21049;-82
2021/11/17 10:56:17;;;;;;;125.42;63.42;;;;;;;7.81;79.10;101425.16;1728318;83;21807;-81
2021/11/17 10:58:46;;;;;;;124.30;66.62;;;;;;;7.82;78.91;101425.66;1728311;82;21563;-81
2021/11/17 11:01:27;;;;;;;135.32;67.03;;;;;;;7.80;78.81;101424.27;1728294;83;21180;-82
2021/11/17 11:04:02;;;;;;;132.20;68.87;;;;;;;7.78;78.62;101428.55;1727717;82;21733;-81
2021/11/17 11:06:40;;;;;;;126.02;68.28;;;;;;;7.73;78.62;101426.11;1728229;82;21091;-81
2021/11/17 11:09:24;;;;;;;148.32;73.42;;;;;;;7.68;78.50;101422.40;1728416;83;21755;-82
2021/11/17 11:11:52;;;;;;;;;;;;;;;7.63;78.53;101423.89;1730767;81;21552;-81
2021/11/17 11:14:33;;;;;;;138.80;70.90;;;;;;;7.58;78.49;101425.89;1728305;83;20256;-81
2021/11/17 11:17:22;;;;;;;147.68;73.52;;;;;;;7.52;78.48;101411.58;1731391;82;21181;-81
2021/11/17 11:19:50;;;;;;;145.68;72.45;;;;;;;7.43;78.42;101414.64;1728129;83;21083;-81
2021/11/17 11:22:22;;;;;;;147.10;71.10;;;;;;;7.37;78.54;101410.01;1727967;83;21814;-82
2021/11/17 11:24:55;;;;;;;146.30;75.47;;;;;;;7.36;78.64;101405.61;1728274;82;21083;-82
2021/11/17 11:27:33;;;;;;;142.75;71.57;;;;;;;7.33;78.52;101408.06;1728398;82;21082;-82
2021/11/17 11:30:08;;;;;;;144.95;71.17;;;;;;;7.27;78.49;101400.34;1728270;82;21015;-82
2021/11/17 11:32:41;;;;;;;147.17;71.97;;;;;;;7.24;78.59;101397.56;1728226;82;21084;-82
2021/11/17 11:35:11;;;;;;;;;;;;;;;7.22;78.64;101393.55;1730703;82;21240;-82
2021/11/17 11:37:44;;;;;;;144.00;69.60;;;;;;;7.22;78.56;101387.43;1728108;83;21118;-81
2021/11/17 11:40:19;;;;;;;150.87;73.78;;;;;;;7.18;78.64;101381.14;1728311;81;21007;-82
2021/11/17 11:43:09;;;;;;;144.00;70.95;;;;;;;7.14;78.62;101383.13;1727442;82;21097;-82
2021/11/17 11:45:43;;;;;;;142.85;71.42;;;;;;;7.14;78.68;101377.89;1728526;83;21043;-82
2021/11/17 11:48:30;;;;;;;143.07;69.60;;;;;;;7.13;78.75;101370.46;1728479;81;21781;-81
2021/11/17 11:51:02;;;;;;;150.85;75.80;;;;;;;7.16;78.74;101377.56;1728372;82;21031;-81
2021/11/17 11:54:00;;;;;;;146.77;72.35;;;;;;;7.16;78.68;101377.13;1715394;83;21066;-81
2021/11/17 11:56:45;;;;;;;145.80;74.15;;;;;;;7.15;78.65;101375.36;1726725;82;21078;-83
2021/11/17 11:59:19;;;;;;;140.03;70.80;;;;;;;7.15;78.67;101370.52;1714008;83;21073;-81
2021/11/17 12:01:46;;;;;;;141.85;70.10;;;;;;;7.15;78.67;101369.20;1728579;82;22193;-81
2021/11/17 12:04:22;;;;;;;146.62;71.75;;;;;;;7.14;78.58;101364.80;1728430;82;21019;-80
2021/11/17 12:07:09;;;;;;;140.10;70.70;;;;;;;7.13;78.63;101361.69;1728397;82;21093;-81
2021/11/17 12:09:39;;;;;;;143.82;73.45;;;;;;;7.11;78.55;101370.77;1728037;82;21066;-82
2021/11/17 12:12:19;;;;;;;138.47;71.30;;;;;;;7.10;78.51;101370.30;1729046;82;21563;-82
2021/11/17 12:14:51;;;;;;;137.80;71.17;;;;;;;7.07;78.56;101361.39;1728456;82;21771;-81
2021/11/17 12:17:26;;;;;;;146.30;72.80;;;;;;;7.05;78.54;101360.01;1728346;82;21081;-81
2021/11/17 12:19:57;;;;;;;145.70;72.22;;;;;;;7.04;78.56;101357.31;1728389;82;21082;-81
2021/11/17 12:22:48;;;;;;;140.65;72.12;;;;;;;6.98;78.41;101357.52;1728347;83;21093;-82
2021/11/17 12:25:29;;;;;;;141.47;72.82;;;;;;;6.94;78.49;101355.55;1728371;83;21580;-81
2021/11/17 12:28:04;;;;;;;145.50;70.32;;;;;;;6.92;78.53;101359.80;1728208;82;21942;-82
2021/11/17 12:30:51;;;;;;;137.50;68.87;;;;;;;6.91;78.55;101354.11;1713691;83;21499;-82
2021/11/17 12:33:38;;;;;;;140.85;69.22;;;;;;;6.88;78.58;101346.09;1728114;82;21086;-81
2021/11/17 12:36:17;;;;;;;139.35;70.83;;;;;;;6.90;78.67;101347.48;1727724;81;21098;-81
2021/11/17 12:38:45;;;;;;;134.47;68.80;;;;;;;6.91;78.66;101344.06;1728268;83;21062;-81
2021/11/17 12:41:32;;;;;;;138.80;69.77;;;;;;;6.91;78.69;101339.71;1728362;82;21781;-81
2021/11/17 12:44:07;;;;;;;141.65;70.72;;;;;;;6.92;78.67;101337.98;1728372;82;21549;-81
2021/11/17 12:46:44;;;;;;;135.80;70.00;;;;;;;6.95;78.72;101335.11;1728330;82;21196;-81
2021/11/17 12:49:31;;;;;;;138.50;72.25;;;;;;;7.00;78.79;101332.31;1726802;82;21552;-81
2021/11/17 12:52:12;;;;;;;139.03;71.50;;;;;;;7.04;78.74;101325.52;1728364;82;22180;-81
2021/11/17 12:54:56;;;;;;;143.97;73.28;;;;;;;7.07;78.62;101322.13;1727989;83;21974;-81
2021/11/17 12:57:26;;;;;;;;;;;;;;;7.09;78.57;101318.75;1730514;82;21540;-82
2021/11/17 13:00:15;;;;;;;141.03;69.87;;;;;;;7.06;78.45;101312.47;1728180;83;20233;-82
2021/11/17 13:02:53;;;;;;;137.22;70.00;;;;;;;7.04;78.37;101308.49;1728412;83;21086;-83
2021/11/17 13:05:28;;;;;;;141.32;70.90;;;;;;;7.03;78.44;101307.99;1728364;81;21078;-82
2021/11/17 13:08:06;;;;;;;141.45;73.30;;;;;;;7.03;78.45;101307.99;1728297;83;21812;-82
2021/11/17 13:11:03;;;;;;;139.30;74.00;;;;;;;7.05;78.46;101302.84;1728166;82;21086;-82
2021/11/17 13:13:44;;;;;;;149.55;73.47;;;;;;;7.05;78.35;101304.15;1728139;82;21553;-82
2021/11/17 13:16:38;;;;;;;144.45;70.03;;;;;;;7.06;78.43;101304.23;1728135;82;21105;-82
2021/11/17 13:19:08;;;;;;;143.20;74.33;;;;;;;7.04;78.29;101303.27;1728319;83;21571;-81
2021/11/17 13:21:38;;;;;;;148.00;73.80;;;;;;;7.02;78.30;101310.14;1710217;83;21256;-82
2021/11/17 13:24:10;;;;;;;152.10;74.35;;;;;;;6.99;78.26;101309.98;1728035;82;21533;-82
2021/11/17 13:26:52;;;;;;;147.00;73.42;;;;;;;6.95;78.17;101314.17;1727794;82;21054;-82
2021/11/17 13:29:30;;;;;;;144.28;74.85;;;;;;;6.91;78.15;101312.66;1727652;82;21000;-82
2021/11/17 13:32:17;;;;;;;144.15;73.47;;;;;;;6.88;78.22;101312.07;1728133;82;21105;-82
2021/11/17 13:34:47;;;;;;;138.45;71.35;;;;;;;6.87;78.23;101306.37;1724722;81;21765;-81
2021/11/17 13:37:25;;;;;;;138.75;73.22;;;;;;;6.87;78.33;101297.59;1715016;83;21043;-81
2021/11/17 13:39:58;;;;;;;148.30;72.15;;;;;;;6.85;78.27;101296.24;1715156;82;21600;-80
2021/11/17 13:42:25;;;;;;;148.47;73.97;;;;;;;6.84;78.29;101295.74;1714967;83;21069;-81
2021/11/17 13:44:55;;;;;;;140.03;72.17;;;;;;;6.83;78.29;101299.58;1715483;83;21094;-76
2021/11/17 13:47:23;;;;;;;136.60;69.62;;;;;;;6.79;78.25;101303.38;1715424;82;21760;-81
2021/11/17 13:49:52;;;;;;;151.53;72.62;;;;;;;6.77;78.26;101302.80;1715334;83;21051;-81
2021/11/17 13:52:26;;;;;;;137.28;72.25;;;;;;;6.75;78.37;101304.45;1715303;82;21074;-83
2021/11/17 13:54:52;;;;;;;146.65;72.42;;;;;;;6.72;78.38;101304.28;1715407;82;21091;-80
2021/11/17 13:57:19;;;;;;;143.78;75.20;;;;;;;6.71;78.50;101300.78;1715295;82;21080;-80
2021/11/17 13:59:46;;;;;;;142.50;73.07;;;;;;;6.70;78.53;101312.47;1715239;82;21744;-81
2021/11/17 14:02:12;;;;;;;144.95;75.70;;;;;;;6.66;78.58;101307.48;1715084;82;21576;-81
2021/11/17 14:04:39;;;;;;;149.80;79.77;;;;;;;6.65;78.59;101316.17;1715122;82;21317;-81
2021/11/17 14:07:06;;;;;;;163.40;85.35;;;;;;;6.62;78.73;101314.70;1715011;83;21110;-81
2021/11/17 14:09:32;;;;;;;156.00;80.45;;;;;;;6.62;78.84;101306.86;1715154;83;21603;-81
2021/11/17 14:11:59;;;;;;;148.95;78.17;;;;;;;6.61;78.95;101312.51;1715243;82;21733;-80
2021/11/17 14:14:26;;;;;;;149.50;76.28;;;;;;;6.64;79.05;101313.48;1715160;83;21086;-80
2021/11/17 14:16:53;;;;;;;145.12;75.85;;;;;;;6.65;79.05;101308.33;1715128;83;21075;-81
2021/11/17 14:19:20;;;;;;;156.63;78.67;;;;;;;6.65;79.03;101309.64;1714569;82;21576;-81
2021/11/17 14:21:46;;;;;;;155.60;78.92;;;;;;;6.63;79.18;101309.98;1715180;82;21008;-81
2021/11/17 14:24:13;;;;;;;151.95;78.28;;;;;;;6.59;79.05;101302.38;1714927;82;21745;-81
2021/11/17 14:26:42;;;;;;;151.72;79.70;;;;;;;6.57;79.16;101299.22;1715023;83;21095;-80
2021/11/17 14:29:16;;;;;;;145.62;75.87;;;;;;;6.56;79.29;101297.41;1715142;83;21098;-81
2021/11/17 14:31:51;;;;;;;149.07;76.72;;;;;;;6.55;79.34;101292.59;1714426;83;21054;-80